sensor_id;sensor_type;location;lat;lon;timestamp;P1;durP1;ratioP1;P2;durP2;ratioP2
27428;SDS011;14881;48.092;11.574;2022-10-01T00:02:19;10.55;;;9.05;;
27428;SDS011;14881;48.092;11.574;2022-10-01T00:04:46;8.93;;;8.02;;
27428;SDS011;14881;48.092;11.574;2022-10-01T00:07:16;8.82;;;7.97;;
27428;SDS011;14881;48.092;11.574;2022-10-01T00:09:43;8.98;;;8.05;;
27428;SDS011;14881;48.092;11.574;2022-10-01T00:12:11;10.25;;;9.20;;
27428;SDS011;14881;48.092;11.574;2022-10-01T00:14:42;11.43;;;10.23;;
27428;SDS011;14881;48.092;11.574;2022-10-01T00:17:10;11.82;;;10.27;;
27428;SDS011;14881;48.092;11.574;2022-10-01T00:19:37;13.50;;;11.52;;
27428;SDS011;14881;48.092;11.574;2022-10-01T00:22:05;13.00;;;11.55;;
27428;SDS011;14881;48.092;11.574;2022-10-01T00:24:33;13.98;;;12.10;;
27428;SDS011;14881;48.092;11.574;2022-10-01T00:27:01;13.52;;;12.10;;
27428;SDS011;14881;48.092;11.574;2022-10-01T00:29:29;13.20;;;11.73;;
27428;SDS011;14881;48.092;11.574;2022-10-01T00:31:59;14.30;;;12.80;;
27428;SDS011;14881;48.092;11.574;2022-10-01T00:34:27;14.60;;;11.80;;
27428;SDS011;14881;48.092;11.574;2022-10-01T00:36:54;15.63;;;13.65;;
27428;SDS011;14881;48.092;11.574;2022-10-01T00:39:22;18.08;;;13.57;;
27428;SDS011;14881;48.092;11.574;2022-10-01T00:41:50;14.05;;;12.07;;
27428;SDS011;14881;48.092;11.574;2022-10-01T00:44:28;18.33;;;13.05;;
27428;SDS011;14881;48.092;11.574;2022-10-01T00:47:02;14.95;;;12.30;;
27428;SDS011;14881;48.092;11.574;2022-10-01T00:49:35;17.52;;;14.77;;
27428;SDS011;14881;48.092;11.574;2022-10-01T00:52:07;17.15;;;13.60;;
27428;SDS011;14881;48.092;11.574;2022-10-01T00:54:43;18.33;;;14.68;;
27428;SDS011;14881;48.092;11.574;2022-10-01T00:57:16;17.58;;;13.57;;
27428;SDS011;14881;48.092;11.574;2022-10-01T00:59:48;17.80;;;13.73;;
27428;SDS011;14881;48.092;11.574;2022-10-01T01:02:17;17.02;;;14.10;;
27428;SDS011;14881;48.092;11.574;2022-10-01T01:04:45;18.48;;;14.98;;
27428;SDS011;14881;48.092;11.574;2022-10-01T01:07:13;18.52;;;14.30;;
27428;SDS011;14881;48.092;11.574;2022-10-01T01:09:43;16.35;;;14.38;;
27428;SDS011;14881;48.092;11.574;2022-10-01T01:12:16;19.20;;;15.35;;
27428;SDS011;14881;48.092;11.574;2022-10-01T01:15:01;18.85;;;15.38;;
27428;SDS011;14881;48.092;11.574;2022-10-01T01:17:42;19.73;;;15.13;;
27428;SDS011;14881;48.092;11.574;2022-10-01T01:20:22;21.77;;;14.50;;
27428;SDS011;14881;48.092;11.574;2022-10-01T01:23:03;21.55;;;14.55;;
27428;SDS011;14881;48.092;11.574;2022-10-01T01:25:42;15.68;;;13.93;;
27428;SDS011;14881;48.092;11.574;2022-10-01T01:28:18;16.75;;;13.82;;
27428;SDS011;14881;48.092;11.574;2022-10-01T01:30:52;17.58;;;14.65;;
27428;SDS011;14881;48.092;11.574;2022-10-01T01:33:23;20.13;;;13.98;;
27428;SDS011;14881;48.092;11.574;2022-10-01T01:35:53;20.02;;;15.45;;
27428;SDS011;14881;48.092;11.574;2022-10-01T01:38:24;17.45;;;14.18;;
27428;SDS011;14881;48.092;11.574;2022-10-01T01:40:56;15.95;;;13.55;;
27428;SDS011;14881;48.092;11.574;2022-10-01T01:43:28;20.00;;;15.20;;
27428;SDS011;14881;48.092;11.574;2022-10-01T01:45:59;17.90;;;14.23;;
27428;SDS011;14881;48.092;11.574;2022-10-01T01:48:29;20.33;;;13.73;;
27428;SDS011;14881;48.092;11.574;2022-10-01T01:51:01;17.40;;;14.80;;
27428;SDS011;14881;48.092;11.574;2022-10-01T01:53:34;17.35;;;14.45;;
27428;SDS011;14881;48.092;11.574;2022-10-01T01:56:03;19.40;;;14.85;;
27428;SDS011;14881;48.092;11.574;2022-10-01T01:58:33;16.45;;;14.30;;
27428;SDS011;14881;48.092;11.574;2022-10-01T02:01:01;19.55;;;14.70;;
27428;SDS011;14881;48.092;11.574;2022-10-01T02:03:29;18.52;;;13.80;;
27428;SDS011;14881;48.092;11.574;2022-10-01T02:06:06;17.23;;;14.68;;
27428;SDS011;14881;48.092;11.574;2022-10-01T02:08:39;18.10;;;14.57;;
27428;SDS011;14881;48.092;11.574;2022-10-01T02:11:18;16.90;;;13.75;;
27428;SDS011;14881;48.092;11.574;2022-10-01T02:13:56;16.10;;;13.32;;
27428;SDS011;14881;48.092;11.574;2022-10-01T02:16:32;16.52;;;13.95;;
27428;SDS011;14881;48.092;11.574;2022-10-01T02:19:04;17.45;;;14.15;;
27428;SDS011;14881;48.092;11.574;2022-10-01T02:21:39;17.88;;;13.18;;
27428;SDS011;14881;48.092;11.574;2022-10-01T02:24:09;15.73;;;13.52;;
27428;SDS011;14881;48.092;11.574;2022-10-01T02:26:44;15.27;;;12.95;;
27428;SDS011;14881;48.092;11.574;2022-10-01T02:29:18;19.08;;;14.10;;
27428;SDS011;14881;48.092;11.574;2022-10-01T02:31:48;21.00;;;13.52;;
27428;SDS011;14881;48.092;11.574;2022-10-01T02:34:21;19.67;;;13.30;;
27428;SDS011;14881;48.092;11.574;2022-10-01T02:36:54;16.55;;;13.20;;
27428;SDS011;14881;48.092;11.574;2022-10-01T02:39:26;18.30;;;13.05;;
27428;SDS011;14881;48.092;11.574;2022-10-01T02:41:56;22.15;;;13.93;;
27428;SDS011;14881;48.092;11.574;2022-10-01T02:44:27;20.48;;;13.10;;
27428;SDS011;14881;48.092;11.574;2022-10-01T02:47:03;17.00;;;13.52;;
27428;SDS011;14881;48.092;11.574;2022-10-01T02:49:35;18.90;;;12.70;;
27428;SDS011;14881;48.092;11.574;2022-10-01T02:52:07;18.27;;;13.98;;
27428;SDS011;14881;48.092;11.574;2022-10-01T02:54:41;23.83;;;14.35;;
27428;SDS011;14881;48.092;11.574;2022-10-01T02:57:15;18.83;;;13.93;;
27428;SDS011;14881;48.092;11.574;2022-10-01T02:59:51;18.33;;;13.48;;
27428;SDS011;14881;48.092;11.574;2022-10-01T03:02:19;17.95;;;13.88;;
27428;SDS011;14881;48.092;11.574;2022-10-01T03:04:47;17.17;;;13.20;;
27428;SDS011;14881;48.092;11.574;2022-10-01T03:07:15;21.88;;;15.13;;
27428;SDS011;14881;48.092;11.574;2022-10-01T03:09:43;15.65;;;13.25;;
27428;SDS011;14881;48.092;11.574;2022-10-01T03:12:11;18.48;;;12.45;;
27428;SDS011;14881;48.092;11.574;2022-10-01T03:14:39;17.75;;;13.13;;
27428;SDS011;14881;48.092;11.574;2022-10-01T03:17:08;18.10;;;13.27;;
27428;SDS011;14881;48.092;11.574;2022-10-01T03:19:36;16.52;;;11.77;;
27428;SDS011;14881;48.092;11.574;2022-10-01T03:22:05;17.27;;;12.27;;
27428;SDS011;14881;48.092;11.574;2022-10-01T03:24:33;15.02;;;11.65;;
27428;SDS011;14881;48.092;11.574;2022-10-01T03:27:01;17.25;;;12.02;;
27428;SDS011;14881;48.092;11.574;2022-10-01T03:29:28;22.23;;;12.27;;
27428;SDS011;14881;48.092;11.574;2022-10-01T03:31:56;16.63;;;12.43;;
27428;SDS011;14881;48.092;11.574;2022-10-01T03:34:25;14.65;;;11.18;;
27428;SDS011;14881;48.092;11.574;2022-10-01T03:36:53;16.98;;;11.07;;
27428;SDS011;14881;48.092;11.574;2022-10-01T03:39:20;15.15;;;11.43;;
27428;SDS011;14881;48.092;11.574;2022-10-01T03:41:48;14.75;;;10.95;;
27428;SDS011;14881;48.092;11.574;2022-10-01T03:44:16;13.57;;;10.35;;
27428;SDS011;14881;48.092;11.574;2022-10-01T03:46:43;14.55;;;11.70;;
27428;SDS011;14881;48.092;11.574;2022-10-01T03:49:11;18.33;;;11.55;;
27428;SDS011;14881;48.092;11.574;2022-10-01T03:51:40;13.77;;;10.65;;
27428;SDS011;14881;48.092;11.574;2022-10-01T03:54:08;15.02;;;10.75;;
27428;SDS011;14881;48.092;11.574;2022-10-01T03:56:36;23.08;;;10.63;;
27428;SDS011;14881;48.092;11.574;2022-10-01T03:59:06;15.65;;;11.60;;
27428;SDS011;14881;48.092;11.574;2022-10-01T04:01:33;15.90;;;10.45;;
27428;SDS011;14881;48.092;11.574;2022-10-01T04:04:01;16.30;;;11.35;;
27428;SDS011;14881;48.092;11.574;2022-10-01T04:06:30;14.90;;;10.65;;
27428;SDS011;14881;48.092;11.574;2022-10-01T04:08:59;15.85;;;10.60;;
27428;SDS011;14881;48.092;11.574;2022-10-01T04:11:27;16.60;;;12.60;;
27428;SDS011;14881;48.092;11.574;2022-10-01T04:13:55;16.40;;;11.45;;
27428;SDS011;14881;48.092;11.574;2022-10-01T04:16:23;14.30;;;10.98;;
27428;SDS011;14881;48.092;11.574;2022-10-01T04:18:51;20.13;;;11.70;;
27428;SDS011;14881;48.092;11.574;2022-10-01T04:21:19;18.92;;;12.02;;
27428;SDS011;14881;48.092;11.574;2022-10-01T04:23:47;15.88;;;12.57;;
27428;SDS011;14881;48.092;11.574;2022-10-01T04:26:17;16.50;;;12.02;;
27428;SDS011;14881;48.092;11.574;2022-10-01T04:28:44;15.65;;;11.70;;
27428;SDS011;14881;48.092;11.574;2022-10-01T04:31:12;20.30;;;13.98;;
27428;SDS011;14881;48.092;11.574;2022-10-01T04:33:53;17.83;;;12.98;;
27428;SDS011;14881;48.092;11.574;2022-10-01T04:36:23;18.25;;;13.07;;
27428;SDS011;14881;48.092;11.574;2022-10-01T04:38:51;21.17;;;14.65;;
27428;SDS011;14881;48.092;11.574;2022-10-01T04:41:27;18.67;;;14.32;;
27428;SDS011;14881;48.092;11.574;2022-10-01T04:43:57;20.88;;;14.98;;
27428;SDS011;14881;48.092;11.574;2022-10-01T04:46:26;20.70;;;14.95;;
27428;SDS011;14881;48.092;11.574;2022-10-01T04:48:54;22.48;;;16.02;;
27428;SDS011;14881;48.092;11.574;2022-10-01T04:51:22;20.10;;;14.88;;
27428;SDS011;14881;48.092;11.574;2022-10-01T04:53:50;18.08;;;14.65;;
27428;SDS011;14881;48.092;11.574;2022-10-01T04:56:17;19.00;;;14.02;;
27428;SDS011;14881;48.092;11.574;2022-10-01T04:58:46;20.73;;;14.82;;
27428;SDS011;14881;48.092;11.574;2022-10-01T05:01:14;18.92;;;14.13;;
27428;SDS011;14881;48.092;11.574;2022-10-01T05:03:42;17.92;;;13.27;;
27428;SDS011;14881;48.092;11.574;2022-10-01T05:06:09;15.90;;;12.70;;
27428;SDS011;14881;48.092;11.574;2022-10-01T05:08:37;15.05;;;11.80;;
27428;SDS011;14881;48.092;11.574;2022-10-01T05:11:05;18.27;;;12.90;;
27428;SDS011;14881;48.092;11.574;2022-10-01T05:13:32;17.48;;;13.50;;
27428;SDS011;14881;48.092;11.574;2022-10-01T05:16:01;17.73;;;13.07;;
27428;SDS011;14881;48.092;11.574;2022-10-01T05:18:29;17.25;;;12.45;;
27428;SDS011;14881;48.092;11.574;2022-10-01T05:20:57;13.60;;;11.73;;
27428;SDS011;14881;48.092;11.574;2022-10-01T05:23:25;17.67;;;11.43;;
27428;SDS011;14881;48.092;11.574;2022-10-01T05:25:52;15.38;;;11.27;;
27428;SDS011;14881;48.092;11.574;2022-10-01T05:28:20;14.85;;;10.75;;
27428;SDS011;14881;48.092;11.574;2022-10-01T05:30:48;15.77;;;11.40;;
27428;SDS011;14881;48.092;11.574;2022-10-01T05:33:17;12.30;;;10.75;;
27428;SDS011;14881;48.092;11.574;2022-10-01T05:35:45;14.25;;;10.73;;
27428;SDS011;14881;48.092;11.574;2022-10-01T05:38:13;14.95;;;10.52;;
27428;SDS011;14881;48.092;11.574;2022-10-01T05:40:43;13.55;;;10.35;;
27428;SDS011;14881;48.092;11.574;2022-10-01T05:43:12;14.48;;;9.98;;
27428;SDS011;14881;48.092;11.574;2022-10-01T05:45:40;14.27;;;10.60;;
27428;SDS011;14881;48.092;11.574;2022-10-01T05:48:09;11.07;;;9.75;;
27428;SDS011;14881;48.092;11.574;2022-10-01T05:50:39;11.98;;;9.65;;
27428;SDS011;14881;48.092;11.574;2022-10-01T05:53:09;13.77;;;9.80;;
27428;SDS011;14881;48.092;11.574;2022-10-01T05:55:39;12.77;;;10.93;;
27428;SDS011;14881;48.092;11.574;2022-10-01T05:58:07;14.00;;;10.95;;
27428;SDS011;14881;48.092;11.574;2022-10-01T06:00:36;12.57;;;10.10;;
27428;SDS011;14881;48.092;11.574;2022-10-01T06:03:05;14.05;;;9.95;;
27428;SDS011;14881;48.092;11.574;2022-10-01T06:05:34;12.68;;;9.80;;
27428;SDS011;14881;48.092;11.574;2022-10-01T06:08:05;12.73;;;10.32;;
27428;SDS011;14881;48.092;11.574;2022-10-01T06:10:34;11.20;;;9.70;;
27428;SDS011;14881;48.092;11.574;2022-10-01T06:13:03;11.52;;;9.25;;
27428;SDS011;14881;48.092;11.574;2022-10-01T06:15:32;11.93;;;9.43;;
27428;SDS011;14881;48.092;11.574;2022-10-01T06:18:02;13.10;;;9.82;;
27428;SDS011;14881;48.092;11.574;2022-10-01T06:20:30;12.65;;;9.60;;
27428;SDS011;14881;48.092;11.574;2022-10-01T06:22:58;10.77;;;8.80;;
27428;SDS011;14881;48.092;11.574;2022-10-01T06:25:27;9.48;;;8.25;;
27428;SDS011;14881;48.092;11.574;2022-10-01T06:27:56;10.23;;;8.95;;
27428;SDS011;14881;48.092;11.574;2022-10-01T06:30:26;10.25;;;8.48;;
27428;SDS011;14881;48.092;11.574;2022-10-01T06:32:58;9.32;;;8.32;;
27428;SDS011;14881;48.092;11.574;2022-10-01T06:35:27;8.90;;;8.00;;
27428;SDS011;14881;48.092;11.574;2022-10-01T06:37:55;11.07;;;9.35;;
27428;SDS011;14881;48.092;11.574;2022-10-01T06:40:23;9.93;;;8.10;;
27428;SDS011;14881;48.092;11.574;2022-10-01T06:42:52;8.82;;;7.70;;
27428;SDS011;14881;48.092;11.574;2022-10-01T06:45:23;12.85;;;9.27;;
27428;SDS011;14881;48.092;11.574;2022-10-01T06:47:54;9.18;;;7.82;;
27428;SDS011;14881;48.092;11.574;2022-10-01T06:50:23;9.20;;;7.97;;
27428;SDS011;14881;48.092;11.574;2022-10-01T06:52:51;9.45;;;7.15;;
27428;SDS011;14881;48.092;11.574;2022-10-01T06:55:20;10.82;;;7.43;;
27428;SDS011;14881;48.092;11.574;2022-10-01T06:57:53;8.02;;;7.22;;
27428;SDS011;14881;48.092;11.574;2022-10-01T07:00:23;8.40;;;7.45;;
27428;SDS011;14881;48.092;11.574;2022-10-01T07:02:51;9.15;;;7.82;;
27428;SDS011;14881;48.092;11.574;2022-10-01T07:05:20;7.85;;;7.03;;
27428;SDS011;14881;48.092;11.574;2022-10-01T07:07:48;10.63;;;7.10;;
27428;SDS011;14881;48.092;11.574;2022-10-01T07:10:17;9.82;;;7.78;;
27428;SDS011;14881;48.092;11.574;2022-10-01T07:12:46;8.07;;;7.25;;
27428;SDS011;14881;48.092;11.574;2022-10-01T07:15:16;8.63;;;7.53;;
27428;SDS011;14881;48.092;11.574;2022-10-01T07:17:46;8.80;;;6.30;;
27428;SDS011;14881;48.092;11.574;2022-10-01T07:20:15;12.23;;;6.78;;
27428;SDS011;14881;48.092;11.574;2022-10-01T07:22:44;8.07;;;5.97;;
27428;SDS011;14881;48.092;11.574;2022-10-01T07:25:12;6.72;;;5.90;;
27428;SDS011;14881;48.092;11.574;2022-10-01T07:27:40;6.20;;;5.60;;
27428;SDS011;14881;48.092;11.574;2022-10-01T07:30:08;6.90;;;5.50;;
27428;SDS011;14881;48.092;11.574;2022-10-01T07:32:37;5.85;;;5.22;;
27428;SDS011;14881;48.092;11.574;2022-10-01T07:35:05;5.97;;;5.38;;
27428;SDS011;14881;48.092;11.574;2022-10-01T07:37:34;11.13;;;5.70;;
27428;SDS011;14881;48.092;11.574;2022-10-01T07:40:02;6.50;;;5.35;;
27428;SDS011;14881;48.092;11.574;2022-10-01T07:42:32;5.03;;;4.53;;
27428;SDS011;14881;48.092;11.574;2022-10-01T07:45:00;6.43;;;4.70;;
27428;SDS011;14881;48.092;11.574;2022-10-01T07:47:29;4.82;;;4.30;;
27428;SDS011;14881;48.092;11.574;2022-10-01T07:49:58;4.82;;;4.10;;
27428;SDS011;14881;48.092;11.574;2022-10-01T07:52:26;5.32;;;3.83;;
27428;SDS011;14881;48.092;11.574;2022-10-01T07:54:53;3.97;;;3.63;;
27428;SDS011;14881;48.092;11.574;2022-10-01T07:57:21;3.65;;;3.33;;
27428;SDS011;14881;48.092;11.574;2022-10-01T07:59:49;3.67;;;3.30;;
27428;SDS011;14881;48.092;11.574;2022-10-01T08:02:21;4.18;;;3.30;;
27428;SDS011;14881;48.092;11.574;2022-10-01T08:04:49;7.38;;;3.40;;
27428;SDS011;14881;48.092;11.574;2022-10-01T08:07:35;3.33;;;3.03;;
27428;SDS011;14881;48.092;11.574;2022-10-01T08:10:03;4.95;;;3.22;;
27428;SDS011;14881;48.092;11.574;2022-10-01T08:12:31;4.80;;;3.42;;
27428;SDS011;14881;48.092;11.574;2022-10-01T08:14:59;2.90;;;2.70;;
27428;SDS011;14881;48.092;11.574;2022-10-01T08:17:27;3.88;;;2.70;;
27428;SDS011;14881;48.092;11.574;2022-10-01T08:19:55;2.83;;;2.50;;
27428;SDS011;14881;48.092;11.574;2022-10-01T08:22:22;3.83;;;2.53;;
27428;SDS011;14881;48.092;11.574;2022-10-01T08:24:51;5.03;;;2.50;;
27428;SDS011;14881;48.092;11.574;2022-10-01T08:27:19;2.47;;;2.28;;
27428;SDS011;14881;48.092;11.574;2022-10-01T08:29:47;2.85;;;2.63;;
27428;SDS011;14881;48.092;11.574;2022-10-01T08:32:14;2.80;;;2.60;;
27428;SDS011;14881;48.092;11.574;2022-10-01T08:34:42;2.13;;;2.00;;
27428;SDS011;14881;48.092;11.574;2022-10-01T08:37:10;3.58;;;2.60;;
27428;SDS011;14881;48.092;11.574;2022-10-01T08:39:38;3.47;;;2.05;;
27428;SDS011;14881;48.092;11.574;2022-10-01T08:42:09;3.05;;;2.33;;
27428;SDS011;14881;48.092;11.574;2022-10-01T08:44:47;2.65;;;2.15;;
27428;SDS011;14881;48.092;11.574;2022-10-01T08:47:20;3.47;;;2.30;;
27428;SDS011;14881;48.092;11.574;2022-10-01T08:52:23;4.43;;;2.00;;
27428;SDS011;14881;48.092;11.574;2022-10-01T08:54:55;2.53;;;2.10;;
27428;SDS011;14881;48.092;11.574;2022-10-01T08:57:28;3.63;;;1.92;;
27428;SDS011;14881;48.092;11.574;2022-10-01T08:59:59;3.25;;;2.20;;
27428;SDS011;14881;48.092;11.574;2022-10-01T09:02:31;2.13;;;1.92;;
27428;SDS011;14881;48.092;11.574;2022-10-01T09:05:01;3.65;;;1.90;;
27428;SDS011;14881;48.092;11.574;2022-10-01T09:10:32;2.10;;;1.90;;
27428;SDS011;14881;48.092;11.574;2022-10-01T09:13:16;2.00;;;1.77;;
27428;SDS011;14881;48.092;11.574;2022-10-01T09:18:28;3.35;;;2.40;;
27428;SDS011;14881;48.092;11.574;2022-10-01T09:21:06;2.65;;;1.90;;
27428;SDS011;14881;48.092;11.574;2022-10-01T09:23:43;3.20;;;2.10;;
27428;SDS011;14881;48.092;11.574;2022-10-01T09:26:22;2.53;;;1.70;;
27428;SDS011;14881;48.092;11.574;2022-10-01T09:28:52;11.13;;;2.00;;
27428;SDS011;14881;48.092;11.574;2022-10-01T09:31:23;1.45;;;1.35;;
27428;SDS011;14881;48.092;11.574;2022-10-01T09:33:54;3.08;;;1.80;;
27428;SDS011;14881;48.092;11.574;2022-10-01T09:36:30;2.72;;;1.65;;
27428;SDS011;14881;48.092;11.574;2022-10-01T09:39:09;2.50;;;2.30;;
27428;SDS011;14881;48.092;11.574;2022-10-01T09:41:41;3.13;;;1.90;;
27428;SDS011;14881;48.092;11.574;2022-10-01T09:44:14;3.65;;;1.60;;
27428;SDS011;14881;48.092;11.574;2022-10-01T09:46:44;4.03;;;1.70;;
27428;SDS011;14881;48.092;11.574;2022-10-01T09:49:14;3.80;;;1.77;;
27428;SDS011;14881;48.092;11.574;2022-10-01T09:51:49;3.85;;;2.10;;
27428;SDS011;14881;48.092;11.574;2022-10-01T09:54:24;1.70;;;1.60;;
27428;SDS011;14881;48.092;11.574;2022-10-01T09:56:58;1.55;;;1.45;;
27428;SDS011;14881;48.092;11.574;2022-10-01T09:59:35;2.20;;;1.58;;
27428;SDS011;14881;48.092;11.574;2022-10-01T10:02:15;2.10;;;1.70;;
27428;SDS011;14881;48.092;11.574;2022-10-01T10:04:57;2.30;;;1.42;;
27428;SDS011;14881;48.092;11.574;2022-10-01T10:07:25;1.80;;;1.60;;
27428;SDS011;14881;48.092;11.574;2022-10-01T10:09:54;1.70;;;1.60;;
27428;SDS011;14881;48.092;11.574;2022-10-01T10:12:24;2.33;;;2.00;;
27428;SDS011;14881;48.092;11.574;2022-10-01T10:15:04;1.95;;;1.85;;
27428;SDS011;14881;48.092;11.574;2022-10-01T10:17:33;2.33;;;1.95;;
27428;SDS011;14881;48.092;11.574;2022-10-01T10:20:07;2.78;;;1.80;;
27428;SDS011;14881;48.092;11.574;2022-10-01T10:22:42;2.00;;;1.80;;
27428;SDS011;14881;48.092;11.574;2022-10-01T10:25:10;2.72;;;1.70;;
27428;SDS011;14881;48.092;11.574;2022-10-01T10:27:49;2.05;;;1.92;;
27428;SDS011;14881;48.092;11.574;2022-10-01T10:30:22;2.58;;;2.15;;
27428;SDS011;14881;48.092;11.574;2022-10-01T10:32:51;4.18;;;2.45;;
27428;SDS011;14881;48.092;11.574;2022-10-01T10:35:28;2.97;;;2.58;;
27428;SDS011;14881;48.092;11.574;2022-10-01T10:37:57;2.88;;;2.50;;
27428;SDS011;14881;48.092;11.574;2022-10-01T10:40:25;2.47;;;2.22;;
27428;SDS011;14881;48.092;11.574;2022-10-01T10:42:58;5.15;;;2.50;;
27428;SDS011;14881;48.092;11.574;2022-10-01T10:45:29;4.10;;;2.67;;
27428;SDS011;14881;48.092;11.574;2022-10-01T10:48:03;2.47;;;2.28;;
27428;SDS011;14881;48.092;11.574;2022-10-01T10:50:35;2.85;;;2.55;;
27428;SDS011;14881;48.092;11.574;2022-10-01T10:53:16;6.40;;;2.85;;
27428;SDS011;14881;48.092;11.574;2022-10-01T10:55:54;3.13;;;2.50;;
27428;SDS011;14881;48.092;11.574;2022-10-01T10:58:24;3.03;;;2.72;;
27428;SDS011;14881;48.092;11.574;2022-10-01T11:00:54;3.28;;;2.72;;
27428;SDS011;14881;48.092;11.574;2022-10-01T11:03:24;4.80;;;3.03;;
27428;SDS011;14881;48.092;11.574;2022-10-01T11:05:55;3.10;;;2.80;;
27428;SDS011;14881;48.092;11.574;2022-10-01T11:08:28;7.55;;;3.50;;
27428;SDS011;14881;48.092;11.574;2022-10-01T11:11:01;3.58;;;3.00;;
27428;SDS011;14881;48.092;11.574;2022-10-01T11:13:43;4.60;;;3.58;;
27428;SDS011;14881;48.092;11.574;2022-10-01T11:16:33;6.70;;;3.35;;
27428;SDS011;14881;48.092;11.574;2022-10-01T11:19:12;4.97;;;3.30;;
27428;SDS011;14881;48.092;11.574;2022-10-01T11:21:57;2.43;;;2.23;;
27428;SDS011;14881;48.092;11.574;2022-10-01T11:24:45;3.88;;;2.80;;
27428;SDS011;14881;48.092;11.574;2022-10-01T11:27:27;6.53;;;4.70;;
27428;SDS011;14881;48.092;11.574;2022-10-01T11:30:06;3.30;;;3.00;;
27428;SDS011;14881;48.092;11.574;2022-10-01T11:32:38;4.72;;;2.47;;
27428;SDS011;14881;48.092;11.574;2022-10-01T11:35:22;2.67;;;2.35;;
27428;SDS011;14881;48.092;11.574;2022-10-01T11:38:01;3.10;;;2.70;;
27428;SDS011;14881;48.092;11.574;2022-10-01T11:40:45;2.83;;;2.50;;
27428;SDS011;14881;48.092;11.574;2022-10-01T11:43:17;3.50;;;3.20;;
27428;SDS011;14881;48.092;11.574;2022-10-01T11:45:51;6.65;;;3.95;;
27428;SDS011;14881;48.092;11.574;2022-10-01T11:48:25;3.38;;;3.08;;
27428;SDS011;14881;48.092;11.574;2022-10-01T11:50:59;4.20;;;2.60;;
27428;SDS011;14881;48.092;11.574;2022-10-01T11:53:34;3.10;;;2.78;;
27428;SDS011;14881;48.092;11.574;2022-10-01T11:56:06;2.90;;;2.60;;
27428;SDS011;14881;48.092;11.574;2022-10-01T11:58:58;5.15;;;2.97;;
27428;SDS011;14881;48.092;11.574;2022-10-01T12:01:32;3.42;;;3.13;;
27428;SDS011;14881;48.092;11.574;2022-10-01T12:04:09;3.25;;;2.90;;
27428;SDS011;14881;48.092;11.574;2022-10-01T12:06:43;2.67;;;2.33;;
27428;SDS011;14881;48.092;11.574;2022-10-01T12:09:22;2.85;;;2.60;;
27428;SDS011;14881;48.092;11.574;2022-10-01T12:11:54;3.28;;;2.70;;
27428;SDS011;14881;48.092;11.574;2022-10-01T12:14:27;2.70;;;2.47;;
27428;SDS011;14881;48.092;11.574;2022-10-01T12:17:03;3.25;;;2.17;;
27428;SDS011;14881;48.092;11.574;2022-10-01T12:19:40;3.03;;;2.38;;
27428;SDS011;14881;48.092;11.574;2022-10-01T12:22:12;4.13;;;2.88;;
27428;SDS011;14881;48.092;11.574;2022-10-01T12:24:42;4.05;;;2.88;;
27428;SDS011;14881;48.092;11.574;2022-10-01T12:27:18;2.65;;;2.40;;
27428;SDS011;14881;48.092;11.574;2022-10-01T12:29:56;2.75;;;2.55;;
27428;SDS011;14881;48.092;11.574;2022-10-01T12:32:31;2.90;;;2.70;;
27428;SDS011;14881;48.092;11.574;2022-10-01T12:35:12;4.22;;;2.67;;
27428;SDS011;14881;48.092;11.574;2022-10-01T12:37:55;3.17;;;2.42;;
27428;SDS011;14881;48.092;11.574;2022-10-01T12:40:34;2.58;;;2.38;;
27428;SDS011;14881;48.092;11.574;2022-10-01T12:46:13;3.53;;;2.53;;
27428;SDS011;14881;48.092;11.574;2022-10-01T12:48:53;3.20;;;2.92;;
27428;SDS011;14881;48.092;11.574;2022-10-01T12:51:35;3.13;;;2.78;;
27428;SDS011;14881;48.092;11.574;2022-10-01T12:54:15;5.13;;;3.10;;
27428;SDS011;14881;48.092;11.574;2022-10-01T12:56:53;2.92;;;2.70;;
27428;SDS011;14881;48.092;11.574;2022-10-01T12:59:36;4.75;;;2.97;;
27428;SDS011;14881;48.092;11.574;2022-10-01T13:02:17;3.97;;;2.65;;
27428;SDS011;14881;48.092;11.574;2022-10-01T13:05:03;3.28;;;2.65;;
27428;SDS011;14881;48.092;11.574;2022-10-01T13:07:47;3.50;;;2.95;;
27428;SDS011;14881;48.092;11.574;2022-10-01T13:10:33;7.15;;;5.25;;
27428;SDS011;14881;48.092;11.574;2022-10-01T13:13:10;4.50;;;3.30;;
27428;SDS011;14881;48.092;11.574;2022-10-01T13:15:43;4.35;;;2.70;;
27428;SDS011;14881;48.092;11.574;2022-10-01T13:18:18;3.22;;;2.63;;
27428;SDS011;14881;48.092;11.574;2022-10-01T13:20:55;2.67;;;2.30;;
27428;SDS011;14881;48.092;11.574;2022-10-01T13:23:33;2.30;;;2.10;;
27428;SDS011;14881;48.092;11.574;2022-10-01T13:26:07;2.50;;;2.30;;
27428;SDS011;14881;48.092;11.574;2022-10-01T13:28:48;2.35;;;2.15;;
27428;SDS011;14881;48.092;11.574;2022-10-01T13:31:30;2.92;;;2.53;;
27428;SDS011;14881;48.092;11.574;2022-10-01T13:34:02;2.08;;;1.80;;
27428;SDS011;14881;48.092;11.574;2022-10-01T13:36:49;3.47;;;2.35;;
27428;SDS011;14881;48.092;11.574;2022-10-01T13:39:22;2.13;;;1.92;;
27428;SDS011;14881;48.092;11.574;2022-10-01T13:41:55;5.45;;;2.17;;
27428;SDS011;14881;48.092;11.574;2022-10-01T13:44:24;2.50;;;1.92;;
27428;SDS011;14881;48.092;11.574;2022-10-01T13:47:00;2.00;;;1.80;;
27428;SDS011;14881;48.092;11.574;2022-10-01T13:49:32;1.92;;;1.83;;
27428;SDS011;14881;48.092;11.574;2022-10-01T13:52:02;2.00;;;1.80;;
27428;SDS011;14881;48.092;11.574;2022-10-01T13:54:33;1.60;;;1.50;;
27428;SDS011;14881;48.092;11.574;2022-10-01T13:57:08;3.30;;;1.67;;
27428;SDS011;14881;48.092;11.574;2022-10-01T13:59:36;2.85;;;1.77;;
27428;SDS011;14881;48.092;11.574;2022-10-01T14:04:56;2.15;;;1.50;;
27428;SDS011;14881;48.092;11.574;2022-10-01T14:07:34;1.48;;;1.38;;
27428;SDS011;14881;48.092;11.574;2022-10-01T14:10:08;1.92;;;1.67;;
27428;SDS011;14881;48.092;11.574;2022-10-01T14:12:40;1.70;;;1.60;;
27428;SDS011;14881;48.092;11.574;2022-10-01T14:15:29;1.63;;;1.52;;
27428;SDS011;14881;48.092;11.574;2022-10-01T14:18:35;1.55;;;1.40;;
27428;SDS011;14881;48.092;11.574;2022-10-01T14:21:11;1.58;;;1.48;;
27428;SDS011;14881;48.092;11.574;2022-10-01T14:23:56;2.78;;;1.67;;
27428;SDS011;14881;48.092;11.574;2022-10-01T14:26:33;1.85;;;1.60;;
27428;SDS011;14881;48.092;11.574;2022-10-01T14:29:11;2.17;;;1.60;;
27428;SDS011;14881;48.092;11.574;2022-10-01T14:31:51;2.38;;;1.85;;
27428;SDS011;14881;48.092;11.574;2022-10-01T14:34:29;2.38;;;2.17;;
27428;SDS011;14881;48.092;11.574;2022-10-01T14:37:06;2.17;;;1.80;;
27428;SDS011;14881;48.092;11.574;2022-10-01T14:39:42;2.60;;;1.50;;
27428;SDS011;14881;48.092;11.574;2022-10-01T14:42:14;1.85;;;1.75;;
27428;SDS011;14881;48.092;11.574;2022-10-01T14:44:44;1.92;;;1.83;;
27428;SDS011;14881;48.092;11.574;2022-10-01T14:47:15;2.13;;;1.92;;
27428;SDS011;14881;48.092;11.574;2022-10-01T14:49:45;2.17;;;1.90;;
27428;SDS011;14881;48.092;11.574;2022-10-01T14:52:19;1.80;;;1.70;;
27428;SDS011;14881;48.092;11.574;2022-10-01T14:54:51;1.67;;;1.58;;
27428;SDS011;14881;48.092;11.574;2022-10-01T14:59:55;1.77;;;1.50;;
27428;SDS011;14881;48.092;11.574;2022-10-01T15:02:25;1.67;;;1.58;;
27428;SDS011;14881;48.092;11.574;2022-10-01T15:04:55;3.63;;;1.80;;
27428;SDS011;14881;48.092;11.574;2022-10-01T15:07:23;2.35;;;1.65;;
27428;SDS011;14881;48.092;11.574;2022-10-01T15:10:03;1.60;;;1.50;;